sensor_id;sensor_type;location;lat;lon;timestamp;pressure;altitude;pressure_sealevel;temperature;humidity
71621;BME280;59471;42.254;23.102;2023-02-23T00:01:48;95785.88;;;3.57;72.22
71621;BME280;59471;42.254;23.102;2023-02-23T00:04:14;95798.94;;;3.45;72.46
71621;BME280;59471;42.254;23.102;2023-02-23T00:06:43;95793.44;;;3.19;73.11
71621;BME280;59471;42.254;23.102;2023-02-23T00:09:09;95800.78;;;3.24;73.46
71621;BME280;59471;42.254;23.102;2023-02-23T00:12:03;95798.75;;;3.28;72.97
71621;BME280;59471;42.254;23.102;2023-02-23T00:14:33;95803.78;;;3.10;73.55
71621;BME280;59471;42.254;23.102;2023-02-23T00:16:59;95796.66;;;3.02;74.59
71621;BME280;59471;42.254;23.102;2023-02-23T00:19:25;95802.84;;;3.40;74.94
71621;BME280;59471;42.254;23.102;2023-02-23T00:21:52;95807.13;;;3.60;74.48
71621;BME280;59471;42.254;23.102;2023-02-23T00:24:18;95805.72;;;3.37;75.70
71621;BME280;59471;42.254;23.102;2023-02-23T00:26:45;95798.44;;;3.11;76.81
71621;BME280;59471;42.254;23.102;2023-02-23T00:29:17;95816.59;;;3.21;75.41
71621;BME280;59471;42.254;23.102;2023-02-23T00:31:48;95797.00;;;3.28;74.61
71621;BME280;59471;42.254;23.102;2023-02-23T00:34:16;95800.41;;;3.29;73.68
71621;BME280;59471;42.254;23.102;2023-02-23T00:36:49;95800.19;;;3.01;74.21
71621;BME280;59471;42.254;23.102;2023-02-23T00:39:16;95803.56;;;2.92;75.44
71621;BME280;59471;42.254;23.102;2023-02-23T00:41:51;95801.28;;;2.98;75.64
71621;BME280;59471;42.254;23.102;2023-02-23T00:44:17;95801.59;;;3.15;74.60
71621;BME280;59471;42.254;23.102;2023-02-23T00:46:45;95803.19;;;2.96;75.58
71621;BME280;59471;42.254;23.102;2023-02-23T00:49:14;95786.53;;;2.89;76.09
71621;BME280;59471;42.254;23.102;2023-02-23T00:51:40;95800.25;;;3.30;75.00
71621;BME280;59471;42.254;23.102;2023-02-23T00:54:07;95798.38;;;3.32;74.25
71621;BME280;59471;42.254;23.102;2023-02-23T00:56:37;95798.72;;;3.08;74.77
71621;BME280;59471;42.254;23.102;2023-02-23T00:59:03;95799.97;;;3.14;75.18
71621;BME280;59471;42.254;23.102;2023-02-23T01:01:29;95799.69;;;3.17;73.91
71621;BME280;59471;42.254;23.102;2023-02-23T01:03:54;95795.31;;;3.08;74.40
71621;BME280;59471;42.254;23.102;2023-02-23T01:06:21;95801.59;;;3.15;74.57
71621;BME280;59471;42.254;23.102;2023-02-23T01:08:48;95801.50;;;3.26;74.13
71621;BME280;59471;42.254;23.102;2023-02-23T01:11:17;95798.38;;;3.32;73.57
71621;BME280;59471;42.254;23.102;2023-02-23T01:13:46;95795.63;;;3.24;73.86
71621;BME280;59471;42.254;23.102;2023-02-23T01:16:15;95799.47;;;2.89;74.92
71621;BME280;59471;42.254;23.102;2023-02-23T01:18:43;95799.91;;;2.94;76.15
71621;BME280;59471;42.254;23.102;2023-02-23T01:21:22;95799.88;;;2.85;75.18
71621;BME280;59471;42.254;23.102;2023-02-23T01:23:51;95802.53;;;2.73;75.90
71621;BME280;59471;42.254;23.102;2023-02-23T01:26:22;95802.31;;;2.86;74.80
71621;BME280;59471;42.254;23.102;2023-02-23T01:28:55;95795.75;;;2.72;75.25
71621;BME280;59471;42.254;23.102;2023-02-23T01:31:25;95801.22;;;2.79;75.14
71621;BME280;59471;42.254;23.102;2023-02-23T01:34:01;95802.91;;;2.99;74.48
71621;BME280;59471;42.254;23.102;2023-02-23T01:36:28;95801.28;;;2.98;73.43
71621;BME280;59471;42.254;23.102;2023-02-23T01:38:56;95795.03;;;3.01;74.37
71621;BME280;59471;42.254;23.102;2023-02-23T01:41:25;95781.69;;;3.06;73.99
71621;BME280;59471;42.254;23.102;2023-02-23T01:43:59;95796.13;;;3.08;73.72
71621;BME280;59471;42.254;23.102;2023-02-23T01:46:34;95789.06;;;2.70;74.98
71621;BME280;59471;42.254;23.102;2023-02-23T01:49:05;95778.63;;;2.81;74.48
71621;BME280;59471;42.254;23.102;2023-02-23T01:51:37;95791.38;;;2.73;74.40
71621;BME280;59471;42.254;23.102;2023-02-23T01:54:15;95788.06;;;2.61;74.99
71621;BME280;59471;42.254;23.102;2023-02-23T01:56:48;95779.06;;;2.55;75.01
71621;BME280;59471;42.254;23.102;2023-02-23T01:59:24;95793.78;;;2.65;74.96
71621;BME280;59471;42.254;23.102;2023-02-23T02:01:54;95783.19;;;2.68;74.96
71621;BME280;59471;42.254;23.102;2023-02-23T02:04:21;95775.59;;;2.76;74.74
71621;BME280;59471;42.254;23.102;2023-02-23T02:06:48;95785.44;;;2.82;74.84
71621;BME280;59471;42.254;23.102;2023-02-23T02:09:19;95793.03;;;2.84;74.30
71621;BME280;59471;42.254;23.102;2023-02-23T02:11:50;95778.84;;;2.68;74.77
71621;BME280;59471;42.254;23.102;2023-02-23T02:14:26;95770.59;;;2.44;75.46
71621;BME280;59471;42.254;23.102;2023-02-23T02:20:10;95788.03;;;2.51;75.19
71621;BME280;59471;42.254;23.102;2023-02-23T02:25:45;95791.38;;;2.42;76.22
71621;BME280;59471;42.254;23.102;2023-02-23T02:31:32;95794.72;;;2.54;76.38
71621;BME280;59471;42.254;23.102;2023-02-23T02:40:42;95790.94;;;2.68;76.79
71621;BME280;59471;42.254;23.102;2023-02-23T02:46:34;95790.28;;;2.66;78.06
71621;BME280;59471;42.254;23.102;2023-02-23T02:49:06;95791.22;;;2.34;79.06
71621;BME280;59471;42.254;23.102;2023-02-23T02:51:50;95782.16;;;2.19;79.41
71621;BME280;59471;42.254;23.102;2023-02-23T02:54:33;95788.53;;;2.45;78.61
71621;BME280;59471;42.254;23.102;2023-02-23T02:57:03;95786.03;;;2.34;78.68
71621;BME280;59471;42.254;23.102;2023-02-23T02:59:31;95789.31;;;1.94;80.42
71621;BME280;59471;42.254;23.102;2023-02-23T03:02:25;95779.38;;;1.90;80.75
71621;BME280;59471;42.254;23.102;2023-02-23T03:05:17;95780.69;;;1.84;81.20
71621;BME280;59471;42.254;23.102;2023-02-23T03:11:13;95777.84;;;2.29;78.06
71621;BME280;59471;42.254;23.102;2023-02-23T03:17:21;95781.94;;;2.31;77.53
71621;BME280;59471;42.254;23.102;2023-02-23T03:32:06;95787.16;;;2.20;76.71
71621;BME280;59471;42.254;23.102;2023-02-23T03:35:06;95791.09;;;2.15;76.49
71621;BME280;59471;42.254;23.102;2023-02-23T03:38:39;95799.88;;;2.02;77.59
71621;BME280;59471;42.254;23.102;2023-02-23T03:41:49;95790.25;;;2.14;77.04
71621;BME280;59471;42.254;23.102;2023-02-23T03:44:39;95799.53;;;2.17;77.35
71621;BME280;59471;42.254;23.102;2023-02-23T03:47:28;95807.78;;;2.31;76.35
71621;BME280;59471;42.254;23.102;2023-02-23T03:50:24;95815.13;;;2.36;76.85
71621;BME280;59471;42.254;23.102;2023-02-23T03:53:13;95815.03;;;2.38;76.41
71621;BME280;59471;42.254;23.102;2023-02-23T03:56:01;95809.88;;;2.17;76.35
71621;BME280;59471;42.254;23.102;2023-02-23T03:58:50;95812.78;;;2.02;76.61
71621;BME280;59471;42.254;23.102;2023-02-23T04:01:39;95820.69;;;2.11;76.18
71621;BME280;59471;42.254;23.102;2023-02-23T04:04:24;95827.88;;;1.86;77.38
71621;BME280;59471;42.254;23.102;2023-02-23T04:07:15;95825.97;;;1.88;78.21
71621;BME280;59471;42.254;23.102;2023-02-23T04:10:00;95824.00;;;2.13;76.76
71621;BME280;59471;42.254;23.102;2023-02-23T04:12:52;95823.75;;;2.16;76.50
71621;BME280;59471;42.254;23.102;2023-02-23T04:18:26;95832.09;;;2.08;76.65
71621;BME280;59471;42.254;23.102;2023-02-23T04:20:54;95835.06;;;2.03;76.67
71621;BME280;59471;42.254;23.102;2023-02-23T04:23:21;95825.09;;;1.78;77.95
71621;BME280;59471;42.254;23.102;2023-02-23T04:25:48;95825.22;;;1.97;77.99
71621;BME280;59471;42.254;23.102;2023-02-23T04:28:14;95820.84;;;2.09;77.23
71621;BME280;59471;42.254;23.102;2023-02-23T04:30:40;95827.56;;;2.00;77.21
71621;BME280;59471;42.254;23.102;2023-02-23T04:33:06;95817.81;;;1.83;77.77
71621;BME280;59471;42.254;23.102;2023-02-23T04:35:32;95824.25;;;2.09;77.31
71621;BME280;59471;42.254;23.102;2023-02-23T04:37:58;95817.94;;;2.02;77.78
71621;BME280;59471;42.254;23.102;2023-02-23T04:40:24;95825.13;;;2.20;76.22
71621;BME280;59471;42.254;23.102;2023-02-23T04:42:51;95829.66;;;2.06;76.34
71621;BME280;59471;42.254;23.102;2023-02-23T04:45:17;95832.03;;;1.98;76.51
71621;BME280;59471;42.254;23.102;2023-02-23T04:47:43;95830.75;;;1.72;77.68
71621;BME280;59471;42.254;23.102;2023-02-23T04:50:09;95831.63;;;1.82;77.92
71621;BME280;59471;42.254;23.102;2023-02-23T04:52:36;95823.53;;;1.87;77.31
71621;BME280;59471;42.254;23.102;2023-02-23T04:55:04;95828.00;;;1.84;77.67
71621;BME280;59471;42.254;23.102;2023-02-23T04:57:31;95824.97;;;2.00;77.44
71621;BME280;59471;42.254;23.102;2023-02-23T04:59:58;95824.03;;;2.01;77.59
71621;BME280;59471;42.254;23.102;2023-02-23T05:02:24;95825.13;;;1.99;76.84
71621;BME280;59471;42.254;23.102;2023-02-23T05:04:50;95824.34;;;1.87;76.85
71621;BME280;59471;42.254;23.102;2023-02-23T05:07:16;95827.00;;;1.97;77.00
71621;BME280;59471;42.254;23.102;2023-02-23T05:09:41;95820.00;;;1.55;76.80
71621;BME280;59471;42.254;23.102;2023-02-23T05:12:07;95826.97;;;1.76;77.32
71621;BME280;59471;42.254;23.102;2023-02-23T05:14:33;95835.75;;;1.84;76.71
71621;BME280;59471;42.254;23.102;2023-02-23T05:16:58;95832.63;;;1.70;77.28
71621;BME280;59471;42.254;23.102;2023-02-23T05:19:24;95833.41;;;1.38;77.93
71621;BME280;59471;42.254;23.102;2023-02-23T05:21:50;95841.56;;;1.66;78.21
71621;BME280;59471;42.254;23.102;2023-02-23T05:24:16;95839.00;;;1.54;78.63
71621;BME280;59471;42.254;23.102;2023-02-23T05:26:43;95845.09;;;1.65;78.83
71621;BME280;59471;42.254;23.102;2023-02-23T05:29:09;95841.78;;;1.74;77.86
71621;BME280;59471;42.254;23.102;2023-02-23T05:31:35;95836.31;;;1.56;78.25
71621;BME280;59471;42.254;23.102;2023-02-23T05:34:01;95852.75;;;1.55;78.45
71621;BME280;59471;42.254;23.102;2023-02-23T05:36:26;95853.25;;;1.37;79.72
71621;BME280;59471;42.254;23.102;2023-02-23T05:38:52;95856.34;;;1.63;78.63
71621;BME280;59471;42.254;23.102;2023-02-23T05:41:20;95855.91;;;1.47;78.74
71621;BME280;59471;42.254;23.102;2023-02-23T05:43:47;95860.34;;;1.68;78.40
71621;BME280;59471;42.254;23.102;2023-02-23T05:46:19;95864.31;;;1.72;78.49
71621;BME280;59471;42.254;23.102;2023-02-23T05:48:49;95858.41;;;1.81;78.19
71621;BME280;59471;42.254;23.102;2023-02-23T05:51:16;95873.44;;;1.76;78.49
71621;BME280;59471;42.254;23.102;2023-02-23T05:53:43;95868.03;;;1.79;78.58
71621;BME280;59471;42.254;23.102;2023-02-23T05:56:13;95887.13;;;1.88;78.74
71621;BME280;59471;42.254;23.102;2023-02-23T05:58:48;95888.16;;;1.53;79.74
71621;BME280;59471;42.254;23.102;2023-02-23T06:01:15;95888.94;;;1.76;78.58
71621;BME280;59471;42.254;23.102;2023-02-23T06:03:42;95886.56;;;1.84;78.67
71621;BME280;59471;42.254;23.102;2023-02-23T06:06:09;95892.47;;;1.75;78.27
71621;BME280;59471;42.254;23.102;2023-02-23T06:08:35;95895.50;;;1.80;79.04
71621;BME280;59471;42.254;23.102;2023-02-23T06:11:00;95896.75;;;1.85;79.42
71621;BME280;59471;42.254;23.102;2023-02-23T06:13:26;95906.13;;;1.98;78.85
71621;BME280;59471;42.254;23.102;2023-02-23T06:15:52;95902.22;;;2.03;79.75
71621;BME280;59471;42.254;23.102;2023-02-23T06:18:18;95911.31;;;2.19;79.03
71621;BME280;59471;42.254;23.102;2023-02-23T06:20:45;95905.09;;;2.21;78.20
71621;BME280;59471;42.254;23.102;2023-02-23T06:23:10;95903.91;;;2.46;77.95
71621;BME280;59471;42.254;23.102;2023-02-23T06:25:36;95906.69;;;2.54;78.32
71621;BME280;59471;42.254;23.102;2023-02-23T06:28:02;95916.09;;;2.55;78.42
71621;BME280;59471;42.254;23.102;2023-02-23T06:30:28;95906.94;;;2.51;79.22
71621;BME280;59471;42.254;23.102;2023-02-23T06:32:54;95911.59;;;2.58;78.87
71621;BME280;59471;42.254;23.102;2023-02-23T06:35:19;95911.19;;;2.83;79.06
71621;BME280;59471;42.254;23.102;2023-02-23T06:37:45;95915.00;;;2.79;79.02
71621;BME280;59471;42.254;23.102;2023-02-23T06:40:11;95909.81;;;2.79;79.05
71621;BME280;59471;42.254;23.102;2023-02-23T06:42:36;95913.47;;;2.97;78.51
71621;BME280;59471;42.254;23.102;2023-02-23T06:45:03;95915.97;;;3.09;78.42
71621;BME280;59471;42.254;23.102;2023-02-23T06:47:29;95914.16;;;3.30;77.49
71621;BME280;59471;42.254;23.102;2023-02-23T06:49:54;95912.84;;;3.45;76.81
71621;BME280;59471;42.254;23.102;2023-02-23T06:52:20;95901.69;;;3.55;76.64
71621;BME280;59471;42.254;23.102;2023-02-23T06:54:47;95912.66;;;3.87;75.02
71621;BME280;59471;42.254;23.102;2023-02-23T06:57:14;95914.31;;;3.79;75.55
71621;BME280;59471;42.254;23.102;2023-02-23T06:59:39;95914.84;;;3.82;76.60
71621;BME280;59471;42.254;23.102;2023-02-23T07:02:08;95912.97;;;4.04;75.90
71621;BME280;59471;42.254;23.102;2023-02-23T07:04:35;95908.44;;;4.06;74.92
71621;BME280;59471;42.254;23.102;2023-02-23T07:07:00;95908.19;;;4.09;75.88
71621;BME280;59471;42.254;23.102;2023-02-23T07:09:26;95901.63;;;4.05;75.38
71621;BME280;59471;42.254;23.102;2023-02-23T07:11:52;95896.84;;;4.00;75.68
71621;BME280;59471;42.254;23.102;2023-02-23T07:14:17;95900.56;;;4.17;76.03
71621;BME280;59471;42.254;23.102;2023-02-23T07:16:43;95905.88;;;4.25;75.19
71621;BME280;59471;42.254;23.102;2023-02-23T07:19:09;95899.03;;;4.44;74.55
71621;BME280;59471;42.254;23.102;2023-02-23T07:21:34;95898.88;;;4.74;73.40
71621;BME280;59471;42.254;23.102;2023-02-23T07:24:00;95891.63;;;4.78;73.62
71621;BME280;59471;42.254;23.102;2023-02-23T07:26:29;95896.72;;;5.07;72.47
71621;BME280;59471;42.254;23.102;2023-02-23T07:28:59;95900.06;;;4.90;73.47
71621;BME280;59471;42.254;23.102;2023-02-23T07:31:26;95894.09;;;4.79;74.14
71621;BME280;59471;42.254;23.102;2023-02-23T07:33:52;95893.47;;;5.05;73.06
71621;BME280;59471;42.254;23.102;2023-02-23T07:36:21;95888.38;;;5.41;72.46
71621;BME280;59471;42.254;23.102;2023-02-23T07:38:47;95890.00;;;5.42;71.62
71621;BME280;59471;42.254;23.102;2023-02-23T07:41:13;95888.19;;;5.24;72.39
71621;BME280;59471;42.254;23.102;2023-02-23T07:43:39;95893.09;;;5.27;73.44
71621;BME280;59471;42.254;23.102;2023-02-23T07:46:05;95880.78;;;5.29;73.47
71621;BME280;59471;42.254;23.102;2023-02-23T07:48:31;95872.81;;;5.41;72.89
71621;BME280;59471;42.254;23.102;2023-02-23T07:50:57;95883.56;;;5.73;72.02
71621;BME280;59471;42.254;23.102;2023-02-23T07:53:22;95885.28;;;5.82;72.28
71621;BME280;59471;42.254;23.102;2023-02-23T07:55:56;95878.53;;;5.90;71.33
71621;BME280;59471;42.254;23.102;2023-02-23T07:58:22;95874.59;;;5.86;71.11
71621;BME280;59471;42.254;23.102;2023-02-23T08:00:48;95881.38;;;6.14;71.33
71621;BME280;59471;42.254;23.102;2023-02-23T08:03:13;95881.47;;;6.40;70.27
71621;BME280;59471;42.254;23.102;2023-02-23T08:05:39;95882.69;;;6.54;69.66
71621;BME280;59471;42.254;23.102;2023-02-23T08:08:05;95877.44;;;6.46;69.12
71621;BME280;59471;42.254;23.102;2023-02-23T08:10:31;95876.38;;;6.57;69.04
71621;BME280;59471;42.254;23.102;2023-02-23T08:12:57;95868.94;;;6.62;68.07
71621;BME280;59471;42.254;23.102;2023-02-23T08:15:23;95865.97;;;6.83;68.38
71621;BME280;59471;42.254;23.102;2023-02-23T08:17:49;95866.84;;;6.91;67.17
71621;BME280;59471;42.254;23.102;2023-02-23T08:20:15;95863.09;;;7.20;66.57
71621;BME280;59471;42.254;23.102;2023-02-23T08:22:41;95859.56;;;7.29;66.89
71621;BME280;59471;42.254;23.102;2023-02-23T08:25:08;95862.34;;;7.36;66.61
71621;BME280;59471;42.254;23.102;2023-02-23T08:27:35;95849.72;;;7.57;65.85
71621;BME280;59471;42.254;23.102;2023-02-23T08:30:01;95849.63;;;7.83;64.95
71621;BME280;59471;42.254;23.102;2023-02-23T08:32:32;95859.75;;;7.86;64.15
71621;BME280;59471;42.254;23.102;2023-02-23T08:34:59;95855.03;;;7.98;64.01
71621;BME280;59471;42.254;23.102;2023-02-23T08:37:27;95857.31;;;8.01;64.00
71621;BME280;59471;42.254;23.102;2023-02-23T08:39:54;95850.31;;;8.18;63.95
71621;BME280;59471;42.254;23.102;2023-02-23T08:42:20;95860.44;;;8.21;64.07
71621;BME280;59471;42.254;23.102;2023-02-23T08:44:46;95860.31;;;8.39;63.65
71621;BME280;59471;42.254;23.102;2023-02-23T08:47:13;95851.16;;;8.59;62.99
71621;BME280;59471;42.254;23.102;2023-02-23T08:49:41;95858.66;;;8.71;62.50
71621;BME280;59471;42.254;23.102;2023-02-23T08:52:07;95850.16;;;8.85;61.11
71621;BME280;59471;42.254;23.102;2023-02-23T08:54:32;95857.34;;;8.83;62.17
71621;BME280;59471;42.254;23.102;2023-02-23T08:56:58;95853.38;;;9.03;61.52
71621;BME280;59471;42.254;23.102;2023-02-23T08:59:23;95855.97;;;9.12;61.48
71621;BME280;59471;42.254;23.102;2023-02-23T09:01:50;95853.31;;;9.20;60.13
71621;BME280;59471;42.254;23.102;2023-02-23T09:04:16;95847.44;;;9.26;60.81
71621;BME280;59471;42.254;23.102;2023-02-23T09:06:43;95849.00;;;9.43;59.44
71621;BME280;59471;42.254;23.102;2023-02-23T09:09:09;95854.16;;;9.60;59.61
71621;BME280;59471;42.254;23.102;2023-02-23T09:11:34;95850.34;;;9.70;58.86
71621;BME280;59471;42.254;23.102;2023-02-23T09:14:00;95844.53;;;9.83;58.93
71621;BME280;59471;42.254;23.102;2023-02-23T09:16:25;95851.78;;;9.81;57.63
71621;BME280;59471;42.254;23.102;2023-02-23T09:18:52;95849.34;;;10.03;57.94
71621;BME280;59471;42.254;23.102;2023-02-23T09:21:19;95837.81;;;10.12;57.13
71621;BME280;59471;42.254;23.102;2023-02-23T09:23:47;95841.19;;;10.29;58.15
71621;BME280;59471;42.254;23.102;2023-02-23T09:26:15;95835.41;;;10.56;57.12
71621;BME280;59471;42.254;23.102;2023-02-23T09:28:42;95838.75;;;10.65;57.01
71621;BME280;59471;42.254;23.102;2023-02-23T09:31:13;95827.91;;;10.68;56.38
71621;BME280;59471;42.254;23.102;2023-02-23T09:33:41;95829.03;;;10.88;56.28
71621;BME280;59471;42.254;23.102;2023-02-23T09:36:12;95828.69;;;10.92;55.91
71621;BME280;59471;42.254;23.102;2023-02-23T09:38:45;95832.13;;;11.07;54.66
71621;BME280;59471;42.254;23.102;2023-02-23T09:50:29;95816.75;;;11.33;52.72
71621;BME280;59471;42.254;23.102;2023-02-23T09:53:02;95817.69;;;11.47;54.18
71621;BME280;59471;42.254;23.102;2023-02-23T09:55:32;95813.03;;;11.79;53.99
71621;BME280;59471;42.254;23.102;2023-02-23T09:58:24;95812.66;;;11.97;51.98
71621;BME280;59471;42.254;23.102;2023-02-23T10:03:51;95809.78;;;12.35;50.94
71621;BME280;59471;42.254;23.102;2023-02-23T10:06:22;95806.66;;;12.46;50.51
71621;BME280;59471;42.254;23.102;2023-02-23T10:14:50;95801.56;;;12.72;48.96
71621;BME280;59471;42.254;23.102;2023-02-23T10:24:00;95786.66;;;12.80;48.21
71621;BME280;59471;42.254;23.102;2023-02-23T10:29:22;95777.47;;;12.97;45.87
71621;BME280;59471;42.254;23.102;2023-02-23T10:32:03;95773.34;;;13.16;45.40
71621;BME280;59471;42.254;23.102;2023-02-23T10:34:31;95769.19;;;13.28;44.03
71621;BME280;59471;42.254;23.102;2023-02-23T10:36:59;95765.38;;;13.03;45.82
71621;BME280;59471;42.254;23.102;2023-02-23T10:39:28;95769.19;;;13.35;45.28
71621;BME280;59471;42.254;23.102;2023-02-23T10:41:59;95759.94;;;13.52;46.65
71621;BME280;59471;42.254;23.102;2023-02-23T10:44:28;95753.09;;;13.64;45.69
71621;BME280;59471;42.254;23.102;2023-02-23T10:47:00;95760.03;;;13.79;44.14
71621;BME280;59471;42.254;23.102;2023-02-23T10:49:43;95750.06;;;13.67;45.97
71621;BME280;59471;42.254;23.102;2023-02-23T10:52:14;95745.69;;;13.88;45.42
71621;BME280;59471;42.254;23.102;2023-02-23T10:54:49;95742.03;;;14.02;45.27
71621;BME280;59471;42.254;23.102;2023-02-23T10:57:37;95725.25;;;14.10;44.19
71621;BME280;59471;42.254;23.102;2023-02-23T11:02:42;95736.00;;;14.62;42.94
71621;BME280;59471;42.254;23.102;2023-02-23T11:05:31;95731.91;;;14.66;42.54
71621;BME280;59471;42.254;23.102;2023-02-23T11:08:23;95727.06;;;14.63;43.57
71621;BME280;59471;42.254;23.102;2023-02-23T11:10:59;95725.44;;;14.62;45.92
71621;BME280;59471;42.254;23.102;2023-02-23T11:13:45;95713.91;;;14.69;43.69
71621;BME280;59471;42.254;23.102;2023-02-23T11:16:28;95711.97;;;14.96;42.95
71621;BME280;59471;42.254;23.102;2023-02-23T11:18:58;95702.41;;;15.09;42.13
71621;BME280;59471;42.254;23.102;2023-02-23T11:21:31;95701.25;;;14.91;42.47
71621;BME280;59471;42.254;23.102;2023-02-23T11:24:29;95684.56;;;15.11;41.97
71621;BME280;59471;42.254;23.102;2023-02-23T11:26:54;95698.69;;;15.29;41.90
71621;BME280;59471;42.254;23.102;2023-02-23T11:29:37;95679.22;;;15.24;42.57
71621;BME280;59471;42.254;23.102;2023-02-23T11:32:15;95683.03;;;15.28;43.42
71621;BME280;59471;42.254;23.102;2023-02-23T11:34:44;95681.16;;;15.42;42.74
71621;BME280;59471;42.254;23.102;2023-02-23T11:39:50;95677.91;;;15.78;40.60
71621;BME280;59471;42.254;23.102;2023-02-23T11:42:25;95678.03;;;15.90;40.66
71621;BME280;59471;42.254;23.102;2023-02-23T11:45:04;95671.53;;;15.92;40.82
71621;BME280;59471;42.254;23.102;2023-02-23T11:47:33;95662.69;;;15.80;40.97
71621;BME280;59471;42.254;23.102;2023-02-23T11:50:03;95655.75;;;15.86;40.46
71621;BME280;59471;42.254;23.102;2023-02-23T11:52:30;95651.88;;;15.82;40.88
71621;BME280;59471;42.254;23.102;2023-02-23T11:55:01;95661.66;;;16.06;40.64
71621;BME280;59471;42.254;23.102;2023-02-23T11:57:32;95659.19;;;15.86;40.38
71621;BME280;59471;42.254;23.102;2023-02-23T12:00:08;95662.03;;;16.10;40.80
71621;BME280;59471;42.254;23.102;2023-02-23T12:02:50;95648.56;;;16.18;39.41
71621;BME280;59471;42.254;23.102;2023-02-23T12:05:25;95637.88;;;16.31;40.07
71621;BME280;59471;42.254;23.102;2023-02-23T12:08:05;95642.56;;;16.29;39.77
71621;BME280;59471;42.254;23.102;2023-02-23T12:10:46;95636.84;;;16.51;39.19
71621;BME280;59471;42.254;23.102;2023-02-23T12:13:35;95641.19;;;16.63;38.44
71621;BME280;59471;42.254;23.102;2023-02-23T12:22:39;95629.75;;;17.06;39.61
71621;BME280;59471;42.254;23.102;2023-02-23T12:25:24;95635.22;;;17.23;39.10
71621;BME280;59471;42.254;23.102;2023-02-23T12:30:41;95624.94;;;17.45;37.87
71621;BME280;59471;42.254;23.102;2023-02-23T12:33:14;95621.50;;;17.45;37.20
71621;BME280;59471;42.254;23.102;2023-02-23T12:40:44;95613.88;;;17.36;37.11
71621;BME280;59471;42.254;23.102;2023-02-23T12:43:34;95620.94;;;17.24;37.02
71621;BME280;59471;42.254;23.102;2023-02-23T12:46:10;95615.41;;;17.14;37.35
71621;BME280;59471;42.254;23.102;2023-02-23T12:51:49;95608.06;;;17.58;37.81
71621;BME280;59471;42.254;23.102;2023-02-23T12:54:17;95599.66;;;17.61;35.85
71621;BME280;59471;42.254;23.102;2023-02-23T13:08:57;95590.31;;;17.89;36.39
71621;BME280;59471;42.254;23.102;2023-02-23T13:14:37;95590.50;;;17.75;35.96
71621;BME280;59471;42.254;23.102;2023-02-23T13:20:01;95577.38;;;17.80;36.01
71621;BME280;59471;42.254;23.102;2023-02-23T13:28:49;95583.16;;;18.01;35.08
71621;BME280;59471;42.254;23.102;2023-02-23T13:31:37;95575.63;;;17.74;35.89
71621;BME280;59471;42.254;23.102;2023-02-23T13:34:07;95562.03;;;17.71;35.62
71621;BME280;59471;42.254;23.102;2023-02-23T13:36:37;95578.38;;;17.68;35.43
71621;BME280;59471;42.254;23.102;2023-02-23T13:39:19;95577.84;;;17.77;35.74
71621;BME280;59471;42.254;23.102;2023-02-23T13:53:05;95565.09;;;17.98;34.92
71621;BME280;59471;42.254;23.102;2023-02-23T13:55:35;95577.28;;;17.87;35.24
71621;BME280;59471;42.254;23.102;2023-02-23T13:58:51;95576.66;;;17.73;35.52
71621;BME280;59471;42.254;23.102;2023-02-23T14:01:29;95576.53;;;17.56;35.58
71621;BME280;59471;42.254;23.102;2023-02-23T14:03:59;95568.56;;;17.45;36.32
71621;BME280;59471;42.254;23.102;2023-02-23T14:06:29;95575.44;;;17.46;36.43
71621;BME280;59471;42.254;23.102;2023-02-23T14:09:48;95577.63;;;17.37;37.10
71621;BME280;59471;42.254;23.102;2023-02-23T14:12:01;95576.81;;;17.36;36.80
71621;BME280;59471;42.254;23.102;2023-02-23T14:22:34;95582.56;;;17.33;37.60
71621;BME280;59471;42.254;23.102;2023-02-23T14:28:01;95585.09;;;17.28;37.83
71621;BME280;59471;42.254;23.102;2023-02-23T14:41:38;95587.06;;;17.03;37.83
71621;BME280;59471;42.254;23.102;2023-02-23T14:46:59;95579.59;;;16.81;38.59
71621;BME280;59471;42.254;23.102;2023-02-23T14:52:34;95591.06;;;16.75;38.25
71621;BME280;59471;42.254;23.102;2023-02-23T14:57:36;95599.28;;;16.85;37.29
71621;BME280;59471;42.254;23.102;2023-02-23T15:03:02;95597.31;;;16.19;40.82
71621;BME280;59471;42.254;23.102;2023-02-23T15:05:32;95598.81;;;16.15;40.55
71621;BME280;59471;42.254;23.102;2023-02-23T15:08:22;95600.91;;;16.06;40.88
71621;BME280;59471;42.254;23.102;2023-02-23T15:11:12;95601.72;;;16.07;40.54
71621;BME280;59471;42.254;23.102;2023-02-23T15:13:42;95616.50;;;15.58;42.65
71621;BME280;59471;42.254;23.102;2023-02-23T15:16:15;95618.06;;;15.34;43.23
71621;BME280;59471;42.254;23.102;2023-02-23T15:18:47;95607.91;;;15.37;43.26
71621;BME280;59471;42.254;23.102;2023-02-23T15:21:18;95616.44;;;15.01;43.78
71621;BME280;59471;42.254;23.102;2023-02-23T15:23:50;95621.75;;;14.94;44.43
71621;BME280;59471;42.254;23.102;2023-02-23T15:26:17;95617.59;;;14.67;44.96
71621;BME280;59471;42.254;23.102;2023-02-23T15:28:50;95626.72;;;14.64;45.26
71621;BME280;59471;42.254;23.102;2023-02-23T15:31:16;95624.94;;;14.51;45.58
71621;BME280;59471;42.254;23.102;2023-02-23T15:33:43;95628.34;;;14.45;46.93
71621;BME280;59471;42.254;23.102;2023-02-23T15:36:16;95636.25;;;14.45;45.51
71621;BME280;59471;42.254;23.102;2023-02-23T15:39:01;95629.97;;;14.40;45.67
71621;BME280;59471;42.254;23.102;2023-02-23T15:41:39;95647.81;;;14.31;45.98
71621;BME280;59471;42.254;23.102;2023-02-23T15:44:15;95630.25;;;13.98;46.29
71621;BME280;59471;42.254;23.102;2023-02-23T15:46:53;95644.22;;;13.92;47.01
71621;BME280;59471;42.254;23.102;2023-02-23T15:49:20;95635.13;;;13.88;46.97
71621;BME280;59471;42.254;23.102;2023-02-23T15:51:50;95642.59;;;13.71;47.92
71621;BME280;59471;42.254;23.102;2023-02-23T15:54:31;95648.06;;;13.56;47.96
71621;BME280;59471;42.254;23.102;2023-02-23T15:57:13;95644.19;;;13.52;48.02
71621;BME280;59471;42.254;23.102;2023-02-23T15:59:45;95655.50;;;13.39;48.23
71621;BME280;59471;42.254;23.102;2023-02-23T16:02:18;95659.84;;;13.12;49.04